Главная страница
METAR-TAF:

METAR-TAF

Аэропорты :

Westminster, Мэриленд, США

широта: 39-36-30N, долгота: 077-00-28W, высота над уровнем моря: 240 м

Текущие метеонаблюдения

Эта сводка был подготовлена 25 минут назад, в 12:40 UTC
Штиль
Температура 2°C
Влажность 87%
Давление 1027 hPa
Видимость: 16.1 км
Сплошная облачность на высоте 3500 фута

METAR: KDMW 181240Z AUTO 00000KT 10SM OVC035 02/00 A3034 RMK AO2

Время: 08:05 (13:05 UTC)


TAF: отсутствует

Метеонаблюдения и прогнозы для более 4000 аэропортов (сводки METAR и TAF).

Имеющиеся станции представлены на карте желтыми и красными точками.

Чтобы увидеть название станции, наведите на нее мышь.

Затем щелкните, чтобы увидеть метеонаблюдения и метеопрогнозы.

Управление картой: чтобы увеличить масштаб, щелкните зеленые кнопки с черным крестиком; чтобы уменьшить масштаб, щелкните зеленую кнопку с тире; для просмотра соседних карт щелкайте зеленые стрелки.


METAR-TAF: